Aérodrome :
LOGIN :

S'inscrire | Disclaimer

   EN    FR    IT 

 










Légende :    VFR   VFR Marginal   IFR   IFR Intensif   IFR Très Intensif
Visi : 
Plafond : 
>= 8 km
>= 3000ft
5 à 8 km
1000 à 3000 ft
1500m à 5 km
500 à 1000 ft
800 à 1500m
200 à 500 ft
< 800m
< 200 ft
Symboles :   Orages  Brouillard  Fortes neiges  Fortes précipitations  Vent > 20 kt
SIGMETs :   Divers  Orages  Givrage  Turbulence  Onde Orograph.  Cendres Volcan.







- Altitude de l'aérodrome : 11 ft
- Code IATA : MJV


LELC - Murcia San Javier

DERNIER METAR :
  • 142100Z 04018KT 9999 BKN010 18/16 Q1018 NOSIG

METARs EXPIRÉS :
  • 142030Z 04016KT 9999 BKN010 19/17 Q1018 NOSIG
  • 142000Z 04018KT 9999 BKN010 19/16 Q1018 NOSIG
  • 141930Z 04015KT 9999 BKN010 19/16 Q1018 NOSIG
  • 141900Z 04014KT 9999 BKN010 19/17 Q1019 NOSIG
  • 141830Z 04017KT 9999 BKN012 19/16 Q1019 NOSIG

TAF AMD TAF LELC
Valide du 14 à 21h jusqu'au 15 à 18h UTC


142120Z 1421/1518 05014KT 9999 SCT012 TX20/1512Z TN15/1506Z
TEMPO 1421/1422 BKN012
TEMPO 1500/1508 4000 SHRA FEW030CB
PROB40
TEMPO 1502/1506 05018G28KT 2000 TSRA BKN020 SCT030CB
Pas de NOTAMs connus pour ce terrain.
3 SIGMETs publiés pour la FIR Barcelona (LECB) :
 
Orages noyés dans la masse
LECB SIGMET 3 VALID 142103/150100 LEVA
LECB BARCELONA FIR/UIR EMBD TS OBS AT 2103Z WI N3908 W00053 - N3913 E00013 - N3826 E00026 - N3817 W00045 - N3908 W00053 TOP FL330 STNR NC=
Orages noyés dans la masse
LECB SIGMET 2 VALID 142019/142200 LEVA
LECB BARCELONA FIR/UIR EMBD TS OBS AT 2019Z WI N3616 W00127 - N3645 W00018 - N3723 W00030 - N3711 W00130 - N3616 W00127 TOP FL360 STNR NC=
Orages noyés dans la masse
LECB SIGMET 1 VALID 141950/142100 LEVA
LECB BARCELONA FIR/UIR EMBD TS OBS AT 1950Z WI N3917 W00020 - N3853 W00026 - N3854 E00021 - N3917 W00020 TOP FL270 STNR NC=



MET'MAP, la Météo Aéronautique d'un coup d'oeil ! - Copyright ORBIFLY Décembre 2007 - Disclaimer

ORBIFLY MET'MAP TEAM :

Programmation & Développement : Alexandra Zaïnal
Conception & Développement : Baudouin d'Aumeries
Co-Programmation & Développement : Marc-Olivier Méhu
Soutien technique & logistique : Manuel Goepfert

Contact : metmap@orbifly.com




SOURCES & CREDITS :

   NOAA